PWSweather.com
Personal Weather Stations
Station Observations
KNJOAKLA6
Oakland, NJ 07436

Oakland, NJ 07436

Lat: 41.041, Lon: -74.231

Elevation: 280

Station Type: Davis VP 2

http://stratacolorado.com/oaknjwx/

High Low Average
Temperature 87.2°F30.7°F 69.7°F20.9°F 75.7°F24.3°F
Dew Point 78.5°F25.8°F 67.8°F19.9°F 72.8°F22.7°F
Winds 10.0 mph SSW16.1 mph SSW Calm Calm 0.8 mph 1.3 mph
Wind Gusts 24.0 mph38.6 mph -- 3.9 mph6.3 mph
Humidity 97% 72% 91%
Pressure 29.90 in1012.50 in 29.75 in1007.50 in -
Precipitation 7.44 in189.00 in - -
Hour Temp Dew Point Humidity Winds Wind Gusts Pressure Precip Precip Rate Daily Precip Total
12:00 AM 72.0°F22.2°C 67.9°F19.9°C 87% Calm Calm -- 29.90 in1012.5 mb 0.00 in0.0 mm 0.00 in0.0 mm 0.00 in0.0 mm
12:10 AM 71.8°F22.1°C 68.1°F20.1°C 88% Calm Calm -- 29.89 in1012.2 mb 0.00 in0.0 mm 0.00 in0.0 mm 0.00 in0.0 mm
12:20 AM 71.5°F21.9°C 67.8°F19.9°C 88% Calm Calm -- 29.89 in1012.2 mb 0.00 in0.0 mm 0.00 in0.0 mm 0.00 in0.0 mm
12:30 AM 71.3°F21.8°C 67.9°F19.9°C 89% Calm Calm -- 29.89 in1012.2 mb 0.00 in0.0 mm 0.00 in0.0 mm 0.00 in0.0 mm
12:40 AM 71.2°F21.8°C 68.1°F20.1°C 90% Calm Calm -- 29.89 in1012.2 mb 0.00 in0.0 mm 0.00 in0.0 mm 0.00 in0.0 mm
12:50 AM 71.0°F21.7°C 67.9°F19.9°C 90% Calm Calm -- 29.89 in1012.2 mb 0.00 in0.0 mm 0.00 in0.0 mm 0.00 in0.0 mm
01:00 AM 70.9°F21.6°C 68.1°F20.1°C 91% Calm Calm -- 29.89 in1012.2 mb 0.00 in0.0 mm 0.00 in0.0 mm 0.00 in0.0 mm
01:10 AM 70.8°F21.6°C 68.0°F20.0°C 91% Calm Calm -- 29.89 in1012.2 mb 0.00 in0.0 mm 0.00 in0.0 mm 0.00 in0.0 mm
01:20 AM 70.7°F21.5°C 67.9°F19.9°C 91% Calm Calm -- 29.89 in1012.2 mb 0.00 in0.0 mm 0.00 in0.0 mm 0.00 in0.0 mm
01:30 AM 70.7°F21.5°C 68.3°F20.2°C 92% Calm Calm -- 29.89 in1012.2 mb 0.00 in0.0 mm 0.00 in0.0 mm 0.00 in0.0 mm
01:40 AM 70.6°F21.4°C 68.2°F20.1°C 92% Calm Calm -- 29.89 in1012.2 mb 0.00 in0.0 mm 0.00 in0.0 mm 0.00 in0.0 mm
01:50 AM 70.5°F21.4°C 68.1°F20.1°C 92% Calm Calm -- 29.89 in1012.2 mb 0.00 in0.0 mm 0.00 in0.0 mm 0.00 in0.0 mm
02:00 AM 70.5°F21.4°C 68.4°F20.2°C 93% Calm Calm -- 29.89 in1012.2 mb 0.00 in0.0 mm 0.00 in0.0 mm 0.00 in0.0 mm
02:10 AM 70.4°F21.3°C 68.3°F20.2°C 93% Calm Calm -- 29.89 in1012.2 mb 0.00 in0.0 mm 0.00 in0.0 mm 0.00 in0.0 mm
02:20 AM 70.4°F21.3°C 68.3°F20.2°C 93% Calm Calm -- 29.88 in1011.9 mb 0.00 in0.0 mm 0.00 in0.0 mm 0.00 in0.0 mm
02:30 AM 70.4°F21.3°C 68.3°F20.2°C 93% Calm Calm -- 29.88 in1011.9 mb 0.00 in0.0 mm 0.00 in0.0 mm 0.00 in0.0 mm
02:40 AM 70.3°F21.3°C 68.2°F20.1°C 93% Calm Calm -- 29.88 in1011.9 mb 0.00 in0.0 mm 0.00 in0.0 mm 0.00 in0.0 mm
02:51 AM 70.2°F21.2°C 68.1°F20.1°C 93% Calm Calm -- 29.88 in1011.9 mb 0.00 in0.0 mm 0.00 in0.0 mm 0.00 in0.0 mm
03:00 AM 70.2°F21.2°C 68.4°F20.2°C 94% Calm Calm -- 29.88 in1011.9 mb 0.00 in0.0 mm 0.00 in0.0 mm 0.00 in0.0 mm
03:10 AM 70.2°F21.2°C 68.4°F20.2°C 94% Calm Calm -- 29.88 in1011.9 mb 0.00 in0.0 mm 0.00 in0.0 mm 0.00 in0.0 mm
03:20 AM 70.1°F21.2°C 68.3°F20.2°C 94% Calm Calm -- 29.88 in1011.9 mb 0.00 in0.0 mm 0.00 in0.0 mm 0.00 in0.0 mm
03:30 AM 70.0°F21.1°C 68.2°F20.1°C 94% Calm Calm -- 29.87 in1011.5 mb 0.00 in0.0 mm 0.00 in0.0 mm 0.00 in0.0 mm
03:40 AM 70.0°F21.1°C 68.2°F20.1°C 94% Calm Calm -- 29.87 in1011.5 mb 0.00 in0.0 mm 0.00 in0.0 mm 0.00 in0.0 mm
03:50 AM 70.0°F21.1°C 68.2°F20.1°C 94% Calm Calm -- 29.87 in1011.5 mb 0.00 in0.0 mm 0.00 in0.0 mm 0.00 in0.0 mm
04:00 AM 70.0°F21.1°C 68.2°F20.1°C 94% Calm Calm -- 29.86 in1011.2 mb 0.00 in0.0 mm 0.00 in0.0 mm 0.00 in0.0 mm
04:10 AM 70.0°F21.1°C 68.2°F20.1°C 94% Calm Calm -- 29.86 in1011.2 mb 0.00 in0.0 mm 0.00 in0.0 mm 0.00 in0.0 mm
04:20 AM 70.0°F21.1°C 68.5°F20.3°C 95% Calm Calm -- 29.86 in1011.2 mb 0.00 in0.0 mm 0.00 in0.0 mm 0.00 in0.0 mm
04:30 AM 69.9°F21.1°C 68.4°F20.2°C 95% Calm Calm -- 29.86 in1011.2 mb 0.00 in0.0 mm 0.00 in0.0 mm 0.00 in0.0 mm
04:40 AM 69.9°F21.1°C 68.4°F20.2°C 95% Calm Calm -- 29.86 in1011.2 mb 0.00 in0.0 mm 0.00 in0.0 mm 0.00 in0.0 mm
04:50 AM 69.9°F21.1°C 68.4°F20.2°C 95% Calm Calm -- 29.86 in1011.2 mb 0.00 in0.0 mm 0.00 in0.0 mm 0.00 in0.0 mm
05:00 AM 69.8°F21.0°C 68.3°F20.2°C 95% Calm Calm -- 29.86 in1011.2 mb 0.00 in0.0 mm 0.00 in0.0 mm 0.00 in0.0 mm
05:10 AM 69.8°F21.0°C 68.3°F20.2°C 95% Calm Calm -- 29.86 in1011.2 mb 0.00 in0.0 mm 0.00 in0.0 mm 0.00 in0.0 mm
05:20 AM 69.8°F21.0°C 68.3°F20.2°C 95% Calm Calm -- 29.86 in1011.2 mb 0.00 in0.0 mm 0.00 in0.0 mm 0.00 in0.0 mm
05:30 AM 69.8°F21.0°C 68.3°F20.2°C 95% Calm Calm -- 29.86 in1011.2 mb 0.00 in0.0 mm 0.00 in0.0 mm 0.00 in0.0 mm
05:40 AM 69.7°F20.9°C 68.2°F20.1°C 95% Calm Calm -- 29.86 in1011.2 mb 0.00 in0.0 mm 0.00 in0.0 mm 0.00 in0.0 mm
05:50 AM 69.8°F21.0°C 68.6°F20.3°C 96% Calm Calm -- 29.86 in1011.2 mb 0.00 in0.0 mm 0.00 in0.0 mm 0.00 in0.0 mm
06:00 AM 69.8°F21.0°C 68.6°F20.3°C 96% Calm Calm -- 29.87 in1011.5 mb 0.00 in0.0 mm 0.00 in0.0 mm 0.00 in0.0 mm
06:10 AM 69.8°F21.0°C 68.6°F20.3°C 96% Calm Calm -- 29.86 in1011.2 mb 0.00 in0.0 mm 0.00 in0.0 mm 0.00 in0.0 mm
06:20 AM 69.9°F21.1°C 68.7°F20.4°C 96% Calm Calm -- 29.86 in1011.2 mb 0.00 in0.0 mm 0.00 in0.0 mm 0.00 in0.0 mm
06:30 AM 70.0°F21.1°C 68.8°F20.4°C 96% Calm Calm -- 29.87 in1011.5 mb 0.00 in0.0 mm 0.00 in0.0 mm 0.00 in0.0 mm
06:40 AM 70.2°F21.2°C 69.0°F20.6°C 96% Calm Calm -- 29.87 in1011.5 mb 0.00 in0.0 mm 0.00 in0.0 mm 0.00 in0.0 mm
06:50 AM 70.5°F21.4°C 69.3°F20.7°C 96% Calm Calm -- 29.87 in1011.5 mb 0.00 in0.0 mm 0.00 in0.0 mm 0.00 in0.0 mm
07:00 AM 70.7°F21.5°C 69.5°F20.8°C 96% Calm Calm -- 29.87 in1011.5 mb 0.00 in0.0 mm 0.00 in0.0 mm 0.00 in0.0 mm
07:10 AM 71.0°F21.7°C 69.8°F21.0°C 96% Calm Calm -- 29.87 in1011.5 mb 0.00 in0.0 mm 0.00 in0.0 mm 0.00 in0.0 mm
07:20 AM 71.3°F21.8°C 70.4°F21.3°C 97% Calm Calm -- 29.87 in1011.5 mb 0.00 in0.0 mm 0.00 in0.0 mm 0.00 in0.0 mm
07:30 AM 71.6°F22.0°C 70.7°F21.5°C 97% Calm Calm -- 29.87 in1011.5 mb 0.00 in0.0 mm 0.00 in0.0 mm 0.00 in0.0 mm
07:40 AM 71.9°F22.2°C 71.0°F21.7°C 97% Calm Calm 1.0 mph1.6 kmh 29.86 in1011.2 mb 0.00 in0.0 mm 0.00 in0.0 mm 0.00 in0.0 mm
07:50 AM 72.5°F22.5°C 71.6°F22.0°C 97% Calm Calm 4.0 mph6.4 kmh 29.86 in1011.2 mb 0.00 in0.0 mm 0.00 in0.0 mm 0.00 in0.0 mm
08:00 AM 73.1°F22.8°C 72.2°F22.3°C 97% Calm Calm 5.0 mph8.0 kmh 29.86 in1011.2 mb 0.00 in0.0 mm 0.00 in0.0 mm 0.00 in0.0 mm
08:10 AM 74.1°F23.4°C 73.2°F22.9°C 97% Calm Calm 4.0 mph6.4 kmh 29.86 in1011.2 mb 0.00 in0.0 mm 0.00 in0.0 mm 0.00 in0.0 mm
08:20 AM 74.5°F23.6°C 73.6°F23.1°C 97% 1.0 mph SW1.6 kmh SW 6.0 mph9.7 kmh 29.86 in1011.2 mb 0.00 in0.0 mm 0.00 in0.0 mm 0.00 in0.0 mm
08:30 AM 74.8°F23.8°C 73.9°F23.3°C 97% Calm Calm 6.0 mph9.7 kmh 29.86 in1011.2 mb 0.00 in0.0 mm 0.00 in0.0 mm 0.00 in0.0 mm
08:40 AM 75.1°F23.9°C 74.2°F23.4°C 97% 2.0 mph SW3.2 kmh SW 7.0 mph11.3 kmh 29.85 in1010.8 mb 0.00 in0.0 mm 0.00 in0.0 mm 0.00 in0.0 mm
08:50 AM 75.5°F24.2°C 74.6°F23.7°C 97% 1.0 mph SSW1.6 kmh SSW 9.0 mph14.5 kmh 29.85 in1010.8 mb 0.00 in0.0 mm 0.00 in0.0 mm 0.00 in0.0 mm
09:00 AM 75.8°F24.3°C 74.6°F23.7°C 96% 2.0 mph SSW3.2 kmh SSW 11.0 mph17.7 kmh 29.85 in1010.8 mb 0.00 in0.0 mm 0.00 in0.0 mm 0.00 in0.0 mm
09:10 AM 76.0°F24.4°C 74.5°F23.6°C 95% Calm Calm 9.0 mph14.5 kmh 29.85 in1010.8 mb 0.00 in0.0 mm 0.00 in0.0 mm 0.00 in0.0 mm
09:20 AM 76.4°F24.7°C 74.5°F23.6°C 94% 1.0 mph SW1.6 kmh SW 5.0 mph8.0 kmh 29.85 in1010.8 mb 0.00 in0.0 mm 0.00 in0.0 mm 0.00 in0.0 mm
09:30 AM 76.7°F24.8°C 74.5°F23.6°C 93% 3.0 mph SSW4.8 kmh SSW 10.0 mph16.1 kmh 29.85 in1010.8 mb 0.00 in0.0 mm 0.00 in0.0 mm 0.00 in0.0 mm
09:40 AM 77.2°F25.1°C 74.7°F23.7°C 92% 3.0 mph SSW4.8 kmh SSW 9.0 mph14.5 kmh 29.84 in1010.5 mb 0.00 in0.0 mm 0.00 in0.0 mm 0.00 in0.0 mm
09:50 AM 77.6°F25.3°C 74.8°F23.8°C 91% 4.0 mph WSW6.4 kmh WSW 11.0 mph17.7 kmh 29.84 in1010.5 mb 0.00 in0.0 mm 0.00 in0.0 mm 0.00 in0.0 mm
10:00 AM 77.9°F25.5°C 74.7°F23.7°C 90% 1.0 mph W1.6 kmh W 9.0 mph14.5 kmh 29.84 in1010.5 mb 0.00 in0.0 mm 0.00 in0.0 mm 0.00 in0.0 mm
10:10 AM 78.3°F25.7°C 75.1°F23.9°C 90% 2.0 mph S3.2 kmh S 6.0 mph9.7 kmh 29.83 in1010.2 mb 0.00 in0.0 mm 0.00 in0.0 mm 0.00 in0.0 mm
10:20 AM 78.6°F25.9°C 75.1°F23.9°C 89% 5.0 mph SW8.0 kmh SW 11.0 mph17.7 kmh 29.84 in1010.5 mb 0.00 in0.0 mm 0.00 in0.0 mm 0.00 in0.0 mm
10:30 AM 78.7°F25.9°C 74.8°F23.8°C 88% 1.0 mph SW1.6 kmh SW 9.0 mph14.5 kmh 29.83 in1010.2 mb 0.00 in0.0 mm 0.00 in0.0 mm 0.00 in0.0 mm
10:40 AM 79.1°F26.2°C 75.2°F24.0°C 88% 4.0 mph SW6.4 kmh SW 7.0 mph11.3 kmh 29.83 in1010.2 mb 0.00 in0.0 mm 0.00 in0.0 mm 0.00 in0.0 mm
10:50 AM 79.4°F26.3°C 75.2°F24.0°C 87% Calm Calm 7.0 mph11.3 kmh 29.83 in1010.2 mb 0.00 in0.0 mm 0.00 in0.0 mm 0.00 in0.0 mm
11:00 AM 79.6°F26.4°C 75.4°F24.1°C 87% 1.0 mph SW1.6 kmh SW 13.0 mph20.9 kmh 29.83 in1010.2 mb 0.00 in0.0 mm 0.00 in0.0 mm 0.00 in0.0 mm
11:10 AM 80.0°F26.7°C 75.8°F24.3°C 87% Calm Calm 11.0 mph17.7 kmh 29.83 in1010.2 mb 0.00 in0.0 mm 0.00 in0.0 mm 0.00 in0.0 mm
11:20 AM 80.6°F27.0°C 75.7°F24.3°C 85% 2.0 mph S3.2 kmh S 12.0 mph19.3 kmh 29.83 in1010.2 mb 0.00 in0.0 mm 0.00 in0.0 mm 0.00 in0.0 mm
11:30 AM 81.2°F27.3°C 75.9°F24.4°C 84% 4.0 mph SSW6.4 kmh SSW 11.0 mph17.7 kmh 29.83 in1010.2 mb 0.00 in0.0 mm 0.00 in0.0 mm 0.00 in0.0 mm
11:40 AM 81.4°F27.4°C 75.7°F24.3°C 83% 2.0 mph SW3.2 kmh SW 10.0 mph16.1 kmh 29.84 in1010.5 mb 0.00 in0.0 mm 0.00 in0.0 mm 0.00 in0.0 mm
11:50 AM 81.3°F27.4°C 75.6°F24.2°C 83% 2.0 mph SW3.2 kmh SW 11.0 mph17.7 kmh 29.84 in1010.5 mb 0.00 in0.0 mm 0.00 in0.0 mm 0.00 in0.0 mm
12:00 PM 81.2°F27.3°C 75.5°F24.2°C 83% 2.0 mph S3.2 kmh S 11.0 mph17.7 kmh 29.83 in1010.2 mb 0.00 in0.0 mm 0.00 in0.0 mm 0.00 in0.0 mm
12:10 PM 81.3°F27.4°C 75.6°F24.2°C 83% 3.0 mph SSW4.8 kmh SSW 10.0 mph16.1 kmh 29.83 in1010.2 mb 0.00 in0.0 mm 0.00 in0.0 mm 0.00 in0.0 mm
12:20 PM 81.9°F27.7°C 76.6°F24.8°C 84% 2.0 mph SW3.2 kmh SW 7.0 mph11.3 kmh 29.82 in1009.8 mb 0.00 in0.0 mm 0.00 in0.0 mm 0.00 in0.0 mm
12:30 PM 82.2°F27.9°C 76.2°F24.6°C 82% 2.0 mph SSW3.2 kmh SSW 11.0 mph17.7 kmh 29.82 in1009.8 mb 0.00 in0.0 mm 0.00 in0.0 mm 0.00 in0.0 mm
12:40 PM 82.5°F28.1°C 76.5°F24.7°C 82% 4.0 mph SW6.4 kmh SW 11.0 mph17.7 kmh 29.82 in1009.8 mb 0.00 in0.0 mm 0.00 in0.0 mm 0.00 in0.0 mm
12:50 PM 83.0°F28.3°C 76.9°F24.9°C 82% 3.0 mph SSW4.8 kmh SSW 10.0 mph16.1 kmh 29.81 in1009.5 mb 0.00 in0.0 mm 0.00 in0.0 mm 0.00 in0.0 mm
01:00 PM 83.7°F28.7°C 77.3°F25.2°C 81% 2.0 mph SW3.2 kmh SW 13.0 mph20.9 kmh 29.80 in1009.1 mb 0.00 in0.0 mm 0.00 in0.0 mm 0.00 in0.0 mm
01:10 PM 85.4°F29.7°C 78.5°F25.8°C 80% 1.0 mph SSE1.6 kmh SSE 12.0 mph19.3 kmh 29.80 in1009.1 mb 0.00 in0.0 mm 0.00 in0.0 mm 0.00 in0.0 mm
01:20 PM 86.0°F30.0°C 77.2°F25.1°C 75% 10.0 mph SSW16.1 kmh SSW 18.0 mph29.0 kmh 29.80 in1009.1 mb 0.00 in0.0 mm 0.00 in0.0 mm 0.00 in0.0 mm
01:30 PM 85.9°F29.9°C 77.1°F25.1°C 75% 4.0 mph SSW6.4 kmh SSW 12.0 mph19.3 kmh 29.80 in1009.1 mb 0.00 in0.0 mm 0.00 in0.0 mm 0.00 in0.0 mm
01:40 PM 85.9°F29.9°C 77.5°F25.3°C 76% 1.0 mph NW1.6 kmh NW 10.0 mph16.1 kmh 29.79 in1008.8 mb 0.00 in0.0 mm 0.00 in0.0 mm 0.00 in0.0 mm
01:50 PM 86.1°F30.1°C 77.7°F25.4°C 76% 2.0 mph WSW3.2 kmh WSW 7.0 mph11.3 kmh 29.78 in1008.5 mb 0.00 in0.0 mm 0.00 in0.0 mm 0.00 in0.0 mm
02:00 PM 86.0°F30.0°C 77.2°F25.1°C 75% 1.0 mph SW1.6 kmh SW 12.0 mph19.3 kmh 29.78 in1008.5 mb 0.00 in0.0 mm 0.00 in0.0 mm 0.00 in0.0 mm
02:10 PM 86.8°F30.4°C 77.1°F25.1°C 73% 6.0 mph S9.7 kmh S 12.0 mph19.3 kmh 29.77 in1008.1 mb 0.00 in0.0 mm 0.00 in0.0 mm 0.00 in0.0 mm
02:20 PM 87.1°F30.6°C 77.4°F25.2°C 73% 2.0 mph S3.2 kmh S 15.0 mph24.1 kmh 29.77 in1008.1 mb 0.00 in0.0 mm 0.00 in0.0 mm 0.00 in0.0 mm
02:30 PM 87.2°F30.7°C 77.5°F25.3°C 73% 6.0 mph S9.7 kmh S 15.0 mph24.1 kmh 29.77 in1008.1 mb 0.00 in0.0 mm 0.00 in0.0 mm 0.00 in0.0 mm
02:40 PM 87.2°F30.7°C 77.5°F25.3°C 73% 3.0 mph SW4.8 kmh SW 11.0 mph17.7 kmh 29.76 in1007.8 mb 0.00 in0.0 mm 0.00 in0.0 mm 0.00 in0.0 mm
02:50 PM 86.8°F30.4°C 76.7°F24.8°C 72% 6.0 mph SSW9.7 kmh SSW 14.0 mph22.5 kmh 29.76 in1007.8 mb 0.00 in0.0 mm 0.00 in0.0 mm 0.00 in0.0 mm
03:00 PM 86.2°F30.1°C 76.9°F24.9°C 74% 2.0 mph S3.2 kmh S 10.0 mph16.1 kmh 29.75 in1007.5 mb 0.00 in0.0 mm 0.00 in0.0 mm 0.00 in0.0 mm
03:10 PM 85.1°F29.5°C 76.3°F24.6°C 75% 4.0 mph SSW6.4 kmh SSW 12.0 mph19.3 kmh 29.75 in1007.5 mb 0.00 in0.0 mm 0.00 in0.0 mm 0.00 in0.0 mm
03:20 PM 84.1°F28.9°C 76.9°F24.9°C 79% 2.0 mph WNW3.2 kmh WNW 15.0 mph24.1 kmh 29.77 in1008.1 mb 0.02 in0.5 mm 0.12 in3.0 mm 0.02 in0.5 mm
03:30 PM 82.4°F28.0°C 74.5°F23.6°C 77% Calm Calm 5.0 mph8.0 kmh 29.77 in1008.1 mb 0.09 in2.3 mm 0.42 in10.7 mm 0.09 in2.3 mm
03:40 PM 79.8°F26.6°C 74.2°F23.4°C 83% 3.0 mph SW4.8 kmh SW 24.0 mph38.6 kmh 29.78 in1008.5 mb 0.15 in3.8 mm 0.36 in9.1 mm 0.15 in3.8 mm
03:50 PM 78.0°F25.6°C 73.1°F22.8°C 85% Calm Calm 14.0 mph22.5 kmh 29.77 in1008.1 mb 0.24 in6.1 mm 0.54 in13.7 mm 0.24 in6.1 mm
04:00 PM 76.7°F24.8°C 72.5°F22.5°C 87% 3.0 mph WSW4.8 kmh WSW 9.0 mph14.5 kmh 29.77 in1008.1 mb 0.33 in8.4 mm 0.11 in2.8 mm 0.33 in8.4 mm
04:10 PM 75.9°F24.4°C 72.4°F22.4°C 89% Calm Calm 4.0 mph6.4 kmh 29.77 in1008.1 mb 0.42 in10.7 mm 0.54 in13.7 mm 0.42 in10.7 mm
04:20 PM 75.5°F24.2°C 72.7°F22.6°C 91% Calm Calm 2.0 mph3.2 kmh 29.76 in1007.8 mb 0.48 in12.2 mm 0.36 in9.1 mm 0.51 in13.0 mm
04:30 PM 75.3°F24.1°C 72.8°F22.7°C 92% Calm Calm -- 29.75 in1007.5 mb 0.50 in12.7 mm 0.12 in3.0 mm 0.59 in15.0 mm
04:40 PM 75.6°F24.2°C 73.8°F23.2°C 94% Calm Calm -- 29.75 in1007.5 mb 0.50 in12.7 mm 0.00 in0.0 mm 0.66 in16.8 mm
04:50 PM 76.2°F24.6°C 74.7°F23.7°C 95% Calm Calm 1.0 mph1.6 kmh 29.75 in1007.5 mb 0.48 in12.2 mm 0.00 in0.0 mm 0.73 in18.5 mm
05:00 PM 76.7°F24.8°C 75.2°F24.0°C 95% Calm Calm 1.0 mph1.6 kmh 29.75 in1007.5 mb 0.45 in11.4 mm 0.00 in0.0 mm 0.79 in20.1 mm
05:10 PM 76.8°F24.9°C 75.3°F24.1°C 95% Calm Calm 1.0 mph1.6 kmh 29.75 in1007.5 mb 0.41 in10.4 mm 0.00 in0.0 mm 0.84 in21.3 mm
05:20 PM 77.0°F25.0°C 75.5°F24.2°C 95% 1.0 mph SW1.6 kmh SW 4.0 mph6.4 kmh 29.75 in1007.5 mb 0.37 in9.4 mm 0.00 in0.0 mm 0.89 in22.6 mm
05:30 PM 77.1°F25.1°C 75.6°F24.2°C 95% Calm Calm 4.0 mph6.4 kmh 29.75 in1007.5 mb 0.34 in8.6 mm 0.00 in0.0 mm 0.94 in23.9 mm
05:40 PM 77.1°F25.1°C 75.6°F24.2°C 95% Calm Calm 3.0 mph4.8 kmh 29.75 in1007.5 mb 0.32 in8.1 mm 0.00 in0.0 mm 0.99 in25.1 mm
05:50 PM 77.2°F25.1°C 75.3°F24.1°C 94% 1.0 mph SW1.6 kmh SW 4.0 mph6.4 kmh 29.76 in1007.8 mb 0.30 in7.6 mm 0.00 in0.0 mm 1.03 in26.2 mm
06:00 PM 77.2°F25.1°C 75.3°F24.1°C 94% Calm Calm 3.0 mph4.8 kmh 29.76 in1007.8 mb 0.28 in7.1 mm 0.00 in0.0 mm 1.07 in27.2 mm
06:10 PM 77.3°F25.2°C 75.4°F24.1°C 94% Calm Calm -- 29.76 in1007.8 mb 0.25 in6.4 mm 0.00 in0.0 mm 1.10 in27.9 mm
06:20 PM 77.5°F25.3°C 76.0°F24.4°C 95% Calm Calm 1.0 mph1.6 kmh 29.76 in1007.8 mb 0.23 in5.8 mm 0.00 in0.0 mm 1.13 in28.7 mm
06:30 PM 77.6°F25.3°C 76.1°F24.5°C 95% Calm Calm 2.0 mph3.2 kmh 29.76 in1007.8 mb 0.21 in5.3 mm 0.00 in0.0 mm 1.16 in29.5 mm
06:40 PM 77.7°F25.4°C 76.2°F24.6°C 95% Calm Calm 1.0 mph1.6 kmh 29.76 in1007.8 mb 0.20 in5.1 mm 0.00 in0.0 mm 1.19 in30.2 mm
06:50 PM 77.6°F25.3°C 76.1°F24.5°C 95% Calm Calm 3.0 mph4.8 kmh 29.76 in1007.8 mb 0.18 in4.6 mm 0.00 in0.0 mm 1.21 in30.7 mm
07:00 PM 77.6°F25.3°C 76.1°F24.5°C 95% Calm Calm -- 29.77 in1008.1 mb 0.16 in4.1 mm 0.00 in0.0 mm 1.23 in31.2 mm
07:10 PM 77.6°F25.3°C 76.1°F24.5°C 95% Calm Calm -- 29.77 in1008.1 mb 0.13 in3.3 mm 0.00 in0.0 mm 1.24 in31.5 mm
07:20 PM 77.7°F25.4°C 76.2°F24.6°C 95% Calm Calm 3.0 mph4.8 kmh 29.77 in1008.1 mb 0.12 in3.0 mm 0.00 in0.0 mm 1.25 in31.8 mm
07:30 PM 77.6°F25.3°C 76.1°F24.5°C 95% Calm Calm 1.0 mph1.6 kmh 29.77 in1008.1 mb 0.10 in2.5 mm 0.00 in0.0 mm 1.26 in32.0 mm
07:40 PM 77.5°F25.3°C 76.0°F24.4°C 95% Calm Calm 3.0 mph4.8 kmh 29.77 in1008.1 mb 0.07 in1.8 mm 0.00 in0.0 mm 1.26 in32.0 mm
07:50 PM 77.3°F25.2°C 75.8°F24.3°C 95% Calm Calm 5.0 mph8.0 kmh 29.77 in1008.1 mb 0.05 in1.3 mm 0.00 in0.0 mm 1.26 in32.0 mm
08:00 PM 77.0°F25.0°C 75.5°F24.2°C 95% Calm Calm 1.0 mph1.6 kmh 29.77 in1008.1 mb 0.03 in0.8 mm 0.00 in0.0 mm 1.26 in32.0 mm
08:10 PM 76.8°F24.9°C 75.3°F24.1°C 95% Calm Calm 1.0 mph1.6 kmh 29.77 in1008.1 mb 0.02 in0.5 mm 0.00 in0.0 mm 1.26 in32.0 mm
08:20 PM 76.6°F24.8°C 75.1°F23.9°C 95% Calm Calm -- 29.77 in1008.1 mb 0.01 in0.3 mm 0.00 in0.0 mm 1.26 in32.0 mm
08:30 PM 76.4°F24.7°C 74.9°F23.8°C 95% Calm Calm -- 29.78 in1008.5 mb 0.00 in0.0 mm 0.00 in0.0 mm 1.26 in32.0 mm
08:40 PM 76.1°F24.5°C 74.6°F23.7°C 95% Calm Calm 1.0 mph1.6 kmh 29.78 in1008.5 mb 0.00 in0.0 mm 0.00 in0.0 mm 1.26 in32.0 mm
08:50 PM 75.9°F24.4°C 74.4°F23.6°C 95% Calm Calm -- 29.79 in1008.8 mb 0.00 in0.0 mm 0.00 in0.0 mm 1.26 in32.0 mm
09:00 PM 75.8°F24.3°C 74.6°F23.7°C 96% Calm Calm -- 29.79 in1008.8 mb 0.00 in0.0 mm 0.00 in0.0 mm 1.26 in32.0 mm
09:10 PM 75.6°F24.2°C 74.4°F23.6°C 96% Calm Calm -- 29.79 in1008.8 mb 0.00 in0.0 mm 0.00 in0.0 mm 1.26 in32.0 mm
09:20 PM 75.5°F24.2°C 74.3°F23.5°C 96% Calm Calm -- 29.79 in1008.8 mb 0.00 in0.0 mm 0.00 in0.0 mm 1.26 in32.0 mm
09:30 PM 75.3°F24.1°C 74.1°F23.4°C 96% Calm Calm -- 29.80 in1009.1 mb 0.00 in0.0 mm 0.00 in0.0 mm 1.26 in32.0 mm
09:40 PM 75.1°F23.9°C 73.9°F23.3°C 96% Calm Calm -- 29.80 in1009.1 mb 0.00 in0.0 mm 0.00 in0.0 mm 1.26 in32.0 mm
09:50 PM 74.9°F23.8°C 73.7°F23.2°C 96% Calm Calm -- 29.80 in1009.1 mb 0.00 in0.0 mm 0.00 in0.0 mm 1.26 in32.0 mm
10:00 PM 74.7°F23.7°C 73.5°F23.1°C 96% Calm Calm -- 29.80 in1009.1 mb 0.00 in0.0 mm 0.00 in0.0 mm 1.26 in32.0 mm
10:10 PM 74.5°F23.6°C 73.3°F22.9°C 96% Calm Calm -- 29.80 in1009.1 mb 0.00 in0.0 mm 0.00 in0.0 mm 1.26 in32.0 mm
10:20 PM 74.2°F23.4°C 73.0°F22.8°C 96% Calm Calm -- 29.80 in1009.1 mb 0.00 in0.0 mm 0.00 in0.0 mm 1.26 in32.0 mm
10:30 PM 73.9°F23.3°C 72.7°F22.6°C 96% Calm Calm -- 29.80 in1009.1 mb 0.00 in0.0 mm 0.00 in0.0 mm 1.26 in32.0 mm
10:40 PM 73.7°F23.2°C 72.5°F22.5°C 96% Calm Calm -- 29.80 in1009.1 mb 0.00 in0.0 mm 0.00 in0.0 mm 1.26 in32.0 mm
10:50 PM 73.5°F23.1°C 72.3°F22.4°C 96% Calm Calm -- 29.80 in1009.1 mb 0.00 in0.0 mm 0.00 in0.0 mm 1.26 in32.0 mm
11:00 PM 73.4°F23.0°C 72.2°F22.3°C 96% Calm Calm -- 29.80 in1009.1 mb 0.00 in0.0 mm 0.00 in0.0 mm 1.26 in32.0 mm
11:10 PM 73.1°F22.8°C 71.9°F22.2°C 96% Calm Calm -- 29.80 in1009.1 mb 0.00 in0.0 mm 0.00 in0.0 mm 1.26 in32.0 mm
11:20 PM 72.8°F22.7°C 71.6°F22.0°C 96% Calm Calm -- 29.80 in1009.1 mb 0.00 in0.0 mm 0.00 in0.0 mm 1.26 in32.0 mm
11:30 PM 72.6°F22.6°C 71.4°F21.9°C 96% Calm Calm -- 29.80 in1009.1 mb 0.00 in0.0 mm 0.00 in0.0 mm 1.26 in32.0 mm
11:40 PM 72.4°F22.4°C 71.2°F21.8°C 96% Calm Calm -- 29.80 in1009.1 mb 0.00 in0.0 mm 0.00 in0.0 mm 1.26 in32.0 mm
11:50 PM 72.3°F22.4°C 71.1°F21.7°C 96% Calm Calm -- 29.80 in1009.1 mb 0.00 in0.0 mm 0.00 in0.0 mm 1.26 in32.0 mm